createdAt,value
2024-02-27T00:00:58.479Z,13.88
2024-02-27T00:03:26.221Z,15.30
2024-02-27T00:05:55.381Z,14.65
2024-02-27T00:08:23.277Z,17.23
2024-02-27T00:10:50.982Z,14.27
2024-02-27T00:13:18.722Z,15.13
2024-02-27T00:15:47.925Z,15.38
2024-02-27T00:18:18.085Z,16.67
2024-02-27T00:20:46.326Z,20.33
2024-02-27T00:23:14.616Z,17.25
2024-02-27T00:25:42.600Z,19.35
2024-02-27T00:28:10.432Z,19.58
2024-02-27T00:30:38.198Z,18.30
2024-02-27T00:33:07.655Z,17.80
2024-02-27T00:35:36.358Z,17.15
2024-02-27T00:38:04.329Z,21.95
2024-02-27T00:40:32.027Z,20.50
2024-02-27T00:42:59.698Z,20.15
2024-02-27T00:45:27.491Z,21.27
2024-02-27T00:47:55.280Z,19.58
2024-02-27T00:50:24.522Z,21.25
2024-02-27T00:52:52.339Z,21.48
2024-02-27T00:55:20.245Z,22.80
2024-02-27T00:57:48.001Z,20.45
2024-02-27T01:00:16.410Z,20.55
2024-02-27T01:02:44.563Z,19.77
2024-02-27T01:05:12.504Z,21.70
2024-02-27T01:07:42.726Z,21.20
2024-02-27T01:10:11.312Z,21.73
2024-02-27T01:12:39.801Z,21.65
2024-02-27T01:15:08.355Z,23.55
2024-02-27T01:17:37.230Z,23.50
2024-02-27T01:20:05.490Z,24.08
2024-02-27T01:22:35.397Z,22.77
2024-02-27T01:25:05.496Z,23.83
2024-02-27T01:27:33.211Z,26.40
2024-02-27T01:30:01.404Z,24.55
2024-02-27T01:32:29.224Z,24.08
2024-02-27T01:34:58.904Z,22.90
2024-02-27T01:37:26.876Z,26.13
2024-02-27T01:39:54.511Z,28.67
2024-02-27T01:42:23.622Z,29.65
2024-02-27T01:44:52.946Z,31.48
2024-02-27T01:47:22.543Z,26.70
2024-02-27T01:49:50.473Z,30.00
2024-02-27T01:52:20.205Z,29.50
2024-02-27T01:54:50.373Z,30.08
2024-02-27T01:57:20.452Z,30.48
2024-02-27T01:59:49.996Z,31.38
2024-02-27T02:02:18.049Z,36.45
2024-02-27T02:04:45.716Z,34.17
2024-02-27T02:07:14.518Z,34.60
2024-02-27T02:09:42.322Z,31.27
2024-02-27T02:12:10.451Z,35.38
2024-02-27T02:14:38.172Z,35.30
2024-02-27T02:17:09.739Z,32.35
2024-02-27T02:19:37.501Z,36.47
2024-02-27T02:22:06.597Z,31.35
2024-02-27T02:24:37.347Z,33.13
2024-02-27T02:27:05.843Z,34.25
2024-02-27T02:29:33.547Z,36.95
2024-02-27T02:32:01.214Z,33.72
2024-02-27T02:34:29.046Z,31.88
2024-02-27T02:36:56.713Z,36.63
2024-02-27T02:39:25.841Z,33.40
2024-02-27T02:41:53.508Z,35.25
2024-02-27T02:44:21.178Z,33.15
2024-02-27T02:46:48.786Z,36.40
2024-02-27T02:49:16.671Z,32.80
2024-02-27T02:51:44.404Z,33.05
2024-02-27T02:54:12.078Z,34.15
2024-02-27T02:56:41.080Z,34.78
2024-02-27T02:59:08.753Z,34.90
2024-02-27T03:01:36.472Z,35.35
2024-02-27T03:04:04.442Z,38.05
2024-02-27T03:06:32.196Z,34.00
2024-02-27T03:08:59.933Z,33.00
2024-02-27T03:11:27.660Z,33.22
2024-02-27T03:13:56.775Z,35.75
2024-02-27T03:16:24.425Z,30.83
2024-02-27T03:18:52.229Z,35.35
2024-02-27T03:21:19.993Z,33.75
2024-02-27T03:23:47.679Z,35.90
2024-02-27T03:26:17.330Z,32.72
2024-02-27T03:28:45.068Z,32.45
2024-02-27T03:31:14.138Z,32.55
2024-02-27T03:33:41.902Z,33.60
2024-02-27T03:36:10.296Z,34.53
2024-02-27T03:38:38.928Z,34.28
2024-02-27T03:41:06.881Z,30.38
2024-02-27T03:43:34.585Z,32.55
2024-02-27T03:46:02.242Z,37.92
2024-02-27T03:48:31.457Z,34.50
2024-02-27T03:50:59.355Z,34.55
2024-02-27T03:53:27.076Z,31.98
2024-02-27T03:55:54.696Z,35.05
2024-02-27T03:58:22.351Z,33.17
2024-02-27T04:00:50.306Z,32.95
2024-02-27T04:03:18.151Z,30.58
2024-02-27T04:05:48.141Z,36.60
2024-02-27T04:08:15.858Z,33.67
2024-02-27T04:10:43.675Z,32.22
2024-02-27T04:13:11.417Z,34.22
2024-02-27T04:15:40.139Z,30.52
2024-02-27T04:18:08.541Z,31.25
2024-02-27T04:20:36.313Z,31.45
2024-02-27T04:23:05.645Z,28.13
2024-02-27T04:25:33.725Z,30.65
2024-02-27T04:28:01.435Z,33.95
2024-02-27T04:30:29.254Z,31.08
2024-02-27T04:32:57.164Z,32.00
2024-02-27T04:35:25.721Z,29.48
2024-02-27T04:37:53.414Z,29.55
2024-02-27T04:40:22.492Z,31.45
2024-02-27T04:42:50.146Z,30.55
2024-02-27T04:45:17.933Z,31.75
2024-02-27T04:47:45.624Z,31.52
2024-02-27T04:50:13.410Z,32.47
2024-02-27T04:52:41.261Z,28.70
2024-02-27T04:55:09.996Z,29.38
2024-02-27T04:57:39.465Z,29.08
2024-02-27T05:00:10.951Z,32.47
2024-02-27T05:02:39.025Z,30.75
2024-02-27T05:05:07.788Z,32.42
2024-02-27T05:07:35.420Z,29.05
2024-02-27T05:10:03.394Z,32.72
2024-02-27T05:12:31.250Z,30.27
2024-02-27T05:15:00.870Z,29.85
2024-02-27T05:17:28.734Z,32.05
2024-02-27T05:19:56.414Z,28.77
2024-02-27T05:22:24.045Z,30.88
2024-02-27T05:24:51.703Z,32.80
2024-02-27T05:27:20.717Z,29.05
2024-02-27T05:29:48.517Z,28.42
2024-02-27T05:32:17.485Z,32.35
2024-02-27T05:34:45.301Z,30.77
2024-02-27T05:37:13.053Z,32.25
2024-02-27T05:39:40.739Z,31.23
2024-02-27T05:42:08.503Z,26.88
2024-02-27T05:44:36.159Z,25.92
2024-02-27T05:47:04.235Z,26.58
2024-02-27T05:49:33.334Z,31.58
2024-02-27T05:52:01.046Z,30.52
2024-02-27T05:54:28.772Z,29.10
2024-02-27T05:56:56.477Z,30.33
2024-02-27T05:59:24.249Z,30.92
2024-02-27T06:01:51.941Z,35.75
2024-02-27T06:04:19.715Z,27.98
2024-02-27T06:06:48.779Z,29.10
2024-02-27T06:09:16.654Z,29.45
2024-02-27T06:11:44.317Z,31.02
2024-02-27T06:14:14.012Z,29.30
2024-02-27T06:16:41.695Z,32.15
2024-02-27T06:19:09.447Z,29.88
2024-02-27T06:21:54.875Z,28.55
2024-02-27T06:24:25.102Z,30.27
2024-02-27T06:26:52.831Z,30.90
2024-02-27T06:29:20.535Z,30.58
2024-02-27T06:31:48.239Z,32.63
2024-02-27T06:34:16.114Z,32.25
2024-02-27T06:36:43.897Z,31.33
2024-02-27T06:39:11.589Z,30.73
2024-02-27T06:41:40.673Z,27.65
2024-02-27T06:44:08.438Z,31.35
2024-02-27T06:46:36.162Z,30.17
2024-02-27T06:49:11.598Z,28.60
2024-02-27T06:51:46.040Z,25.55
2024-02-27T06:54:13.813Z,32.17
2024-02-27T06:56:42.855Z,29.77
2024-02-27T06:59:10.518Z,31.38
2024-02-27T07:01:38.189Z,28.52
2024-02-27T07:04:06.129Z,30.77
2024-02-27T07:06:34.056Z,29.95
2024-02-27T07:09:01.897Z,33.22
2024-02-27T07:11:29.942Z,33.20
2024-02-27T07:13:58.976Z,31.40
2024-02-27T07:16:26.830Z,29.40
2024-02-27T07:18:54.638Z,27.88
2024-02-27T07:21:22.378Z,30.95
2024-02-27T07:23:50.082Z,27.02
2024-02-27T07:26:19.869Z,29.75
2024-02-27T07:28:47.807Z,27.45
2024-02-27T07:31:18.298Z,29.98
2024-02-27T07:33:46.217Z,29.92
2024-02-27T07:36:14.587Z,30.85
2024-02-27T07:38:42.386Z,28.05
2024-02-27T07:41:11.558Z,27.60
2024-02-27T07:43:39.353Z,30.40
2024-02-27T07:46:08.160Z,29.67
2024-02-27T07:48:37.294Z,28.10
2024-02-27T07:51:05.595Z,31.08
2024-02-27T07:53:34.454Z,29.00
2024-02-27T07:56:02.105Z,28.55
2024-02-27T07:58:29.868Z,30.50
2024-02-27T08:00:57.822Z,27.80
2024-02-27T08:03:25.611Z,24.92
2024-02-27T08:05:54.812Z,29.35
2024-02-27T08:08:23.513Z,26.75
2024-02-27T08:10:51.221Z,27.13
2024-02-27T08:13:20.647Z,28.13
2024-02-27T08:15:50.649Z,29.80
2024-02-27T08:18:18.459Z,28.98
2024-02-27T08:20:48.071Z,25.17
2024-02-27T08:23:17.104Z,26.10
2024-02-27T08:25:45.394Z,25.92
2024-02-27T08:28:13.540Z,26.75
2024-02-27T08:30:41.369Z,27.33
2024-02-27T08:33:09.142Z,27.80
2024-02-27T08:35:36.947Z,24.17
2024-02-27T08:38:04.879Z,22.92
2024-02-27T08:40:34.432Z,24.85
2024-02-27T08:43:02.099Z,26.33
2024-02-27T08:45:29.867Z,26.52
2024-02-27T08:47:58.244Z,23.98
2024-02-27T08:50:26.434Z,28.45
2024-02-27T08:52:54.167Z,26.25
2024-02-27T08:55:26.092Z,24.20
2024-02-27T08:57:55.354Z,27.00
2024-02-27T09:00:24.490Z,24.00
2024-02-27T09:02:52.365Z,25.50
2024-02-27T09:05:20.372Z,24.02
2024-02-27T09:07:48.259Z,23.55
2024-02-27T09:10:16.153Z,23.13
2024-02-27T09:12:47.958Z,26.27
2024-02-27T09:15:19.235Z,22.30
2024-02-27T09:17:47.039Z,23.20
2024-02-27T09:20:15.073Z,21.85
2024-02-27T09:22:42.977Z,22.92
2024-02-27T09:25:11.015Z,25.25
2024-02-27T09:27:39.221Z,22.92
2024-02-27T09:30:08.301Z,25.08
2024-02-27T09:32:38.046Z,25.00
2024-02-27T09:35:08.728Z,22.35
2024-02-27T09:37:38.672Z,21.65
2024-02-27T09:40:08.270Z,21.50
2024-02-27T09:42:40.582Z,22.35
2024-02-27T09:45:10.415Z,22.45
2024-02-27T09:47:47.393Z,23.90
2024-02-27T09:50:19.369Z,23.40
2024-02-27T09:52:50.981Z,21.95
2024-02-27T09:55:20.458Z,22.65
2024-02-27T09:57:49.861Z,25.55
2024-02-27T10:00:19.130Z,23.55
2024-02-27T10:02:51.095Z,20.55
2024-02-27T10:05:22.970Z,22.30
2024-02-27T10:07:51.846Z,23.02
2024-02-27T10:10:20.646Z,24.80
2024-02-27T10:12:48.568Z,23.00
2024-02-27T10:15:16.582Z,22.67
2024-02-27T10:17:47.072Z,21.25
2024-02-27T10:20:21.085Z,21.88
2024-02-27T10:22:49.607Z,21.20
2024-02-27T10:25:18.205Z,19.70
2024-02-27T10:27:46.361Z,20.75
2024-02-27T10:30:16.110Z,20.67
2024-02-27T10:32:44.557Z,20.60
2024-02-27T10:35:15.512Z,23.20
2024-02-27T10:37:45.995Z,21.88
2024-02-27T10:40:14.105Z,19.77
2024-02-27T10:42:42.636Z,21.38
2024-02-27T10:45:14.263Z,18.70
2024-02-27T10:47:47.534Z,19.65
2024-02-27T10:50:17.682Z,20.88
2024-02-27T10:52:48.360Z,17.17
2024-02-27T10:55:16.899Z,20.55
2024-02-27T10:57:45.257Z,18.55
2024-02-27T11:00:18.178Z,17.85
2024-02-27T11:02:51.051Z,17.63
2024-02-27T11:05:21.395Z,18.33
2024-02-27T11:07:51.977Z,18.48
2024-02-27T11:10:20.473Z,16.33
2024-02-27T11:12:50.243Z,17.83
2024-02-27T11:15:19.892Z,17.70
2024-02-27T11:17:52.506Z,18.98
2024-02-27T11:22:48.163Z,17.25
2024-02-27T11:25:17.909Z,18.85
2024-02-27T11:27:45.997Z,19.00
2024-02-27T11:30:14.982Z,18.92
2024-02-27T11:32:42.876Z,18.13
2024-02-27T11:35:12.209Z,20.08
2024-02-27T11:37:40.112Z,16.80
2024-02-27T11:40:09.392Z,19.50
2024-02-27T11:42:42.495Z,19.73
2024-02-27T11:45:11.565Z,19.20
2024-02-27T11:47:42.670Z,16.55
2024-02-27T11:50:18.694Z,16.05
2024-02-27T11:52:48.055Z,18.42
2024-02-27T11:55:15.854Z,19.08
2024-02-27T11:57:44.909Z,18.15
2024-02-27T12:00:16.408Z,18.10
2024-02-27T12:02:47.909Z,16.50
2024-02-27T12:05:17.996Z,16.40
2024-02-27T12:07:45.946Z,18.15
2024-02-27T12:10:15.575Z,17.42
2024-02-27T12:12:46.054Z,17.05
2024-02-27T12:15:14.422Z,16.40
2024-02-27T12:17:42.432Z,19.85
2024-02-27T12:20:12.280Z,15.63
2024-02-27T12:22:41.220Z,17.17
2024-02-27T12:25:10.123Z,17.55
2024-02-27T12:27:38.795Z,17.33
2024-02-27T12:30:09.781Z,15.40
2024-02-27T12:32:37.879Z,14.90
2024-02-27T12:35:06.363Z,17.98
2024-02-27T12:37:40.105Z,16.02
2024-02-27T12:40:11.985Z,18.60
2024-02-27T12:45:11.938Z,17.02
2024-02-27T12:47:40.278Z,19.45
2024-02-27T12:50:09.737Z,19.90
2024-02-27T12:52:38.061Z,18.30
2024-02-27T12:55:07.478Z,15.75
2024-02-27T12:57:35.413Z,15.82
2024-02-27T13:00:04.867Z,15.60
2024-02-27T13:02:34.155Z,15.93
2024-02-27T13:05:07.167Z,15.95
2024-02-27T13:07:35.193Z,18.67
2024-02-27T13:10:03.997Z,15.32
2024-02-27T13:12:32.132Z,15.07
2024-02-27T13:14:59.970Z,15.30
2024-02-27T13:17:27.756Z,18.05
2024-02-27T13:19:56.918Z,16.38
2024-02-27T13:22:24.577Z,14.50
2024-02-27T13:24:52.421Z,15.98
2024-02-27T13:27:20.144Z,14.30
2024-02-27T13:29:47.873Z,17.90
2024-02-27T13:32:15.631Z,15.43
2024-02-27T13:34:46.125Z,17.23
2024-02-27T13:37:17.271Z,13.52
2024-02-27T13:39:45.381Z,14.02
2024-02-27T13:42:13.900Z,15.40
2024-02-27T13:44:41.949Z,16.88
2024-02-27T13:47:10.372Z,15.70
2024-02-27T13:49:38.476Z,14.95
2024-02-27T13:52:06.639Z,14.95
2024-02-27T13:54:39.294Z,15.95
2024-02-27T13:59:34.690Z,18.83
2024-02-27T14:02:03.529Z,16.80
2024-02-27T14:04:31.748Z,15.05
2024-02-27T14:07:00.427Z,16.80
2024-02-27T14:09:28.283Z,15.45
2024-02-27T14:11:57.729Z,17.20
2024-02-27T14:14:25.657Z,16.15
2024-02-27T14:16:53.417Z,19.13
2024-02-27T14:19:21.546Z,15.27
2024-02-27T14:21:49.474Z,16.38
2024-02-27T14:24:17.358Z,14.98
2024-02-27T14:26:45.185Z,14.73
2024-02-27T14:29:14.391Z,16.52
2024-02-27T14:31:42.066Z,15.82
2024-02-27T14:34:09.878Z,13.98
2024-02-27T14:36:37.722Z,14.05
2024-02-27T14:39:05.475Z,15.52
2024-02-27T14:41:33.190Z,14.43
2024-02-27T14:44:01.063Z,13.40
2024-02-27T14:46:31.195Z,17.35
2024-02-27T14:48:59.039Z,16.00
2024-02-27T14:51:29.528Z,14.93
2024-02-27T14:53:57.231Z,13.57
2024-02-27T14:56:25.106Z,18.40
2024-02-27T14:58:53.201Z,14.52
2024-02-27T15:01:22.054Z,13.02
2024-02-27T15:03:52.245Z,14.32
2024-02-27T15:06:21.031Z,14.60
2024-02-27T15:08:48.855Z,14.18
2024-02-27T15:11:16.606Z,16.10
2024-02-27T15:13:44.423Z,14.32
2024-02-27T15:16:14.104Z,16.00
2024-02-27T15:18:41.842Z,13.80
2024-02-27T15:21:11.130Z,13.18
2024-02-27T15:23:38.802Z,12.75
2024-02-27T15:26:06.756Z,14.43
2024-02-27T15:28:34.505Z,14.15
2024-02-27T15:31:02.264Z,16.90
2024-02-27T15:33:30.070Z,14.60
2024-02-27T15:35:57.830Z,15.48
2024-02-27T15:38:27.131Z,17.52
2024-02-27T15:40:54.824Z,15.55
2024-02-27T15:43:22.536Z,14.20
2024-02-27T15:45:50.356Z,12.40
2024-02-27T15:48:18.294Z,17.77
2024-02-27T15:50:46.083Z,16.30
2024-02-27T15:53:13.842Z,13.85
2024-02-27T15:55:42.820Z,16.00
2024-02-27T15:58:10.475Z,15.50
2024-02-27T16:00:39.124Z,15.77
2024-02-27T16:03:14.458Z,16.13
2024-02-27T16:05:42.648Z,15.63
2024-02-27T16:08:10.305Z,13.50
2024-02-27T16:10:38.017Z,14.88
2024-02-27T16:13:07.228Z,13.73
2024-02-27T16:15:35.018Z,15.00
2024-02-27T16:18:03.809Z,15.23
2024-02-27T16:20:31.994Z,12.65
2024-02-27T16:23:00.078Z,12.55
2024-02-27T16:25:27.711Z,15.77
2024-02-27T16:27:55.425Z,19.05
2024-02-27T16:30:24.573Z,12.98
2024-02-27T16:32:52.287Z,14.98
2024-02-27T16:35:20.036Z,16.95
2024-02-27T16:37:47.734Z,17.30
2024-02-27T16:40:15.744Z,15.48
2024-02-27T16:42:43.747Z,13.43
2024-02-27T16:45:11.748Z,14.15
2024-02-27T16:47:40.835Z,15.90
2024-02-27T16:50:09.232Z,18.75
2024-02-27T16:52:37.203Z,15.05
2024-02-27T16:55:05.980Z,14.43
2024-02-27T16:57:34.421Z,17.00
2024-02-27T17:00:03.024Z,14.05
2024-02-27T17:02:31.710Z,15.68
2024-02-27T17:05:00.846Z,14.70
2024-02-27T17:07:28.781Z,13.98
2024-02-27T17:09:56.672Z,17.83
2024-02-27T17:12:24.728Z,15.40
2024-02-27T17:14:52.665Z,17.33
2024-02-27T17:17:20.562Z,18.40
2024-02-27T17:19:48.256Z,83.18
2024-02-27T17:22:17.398Z,64.95
2024-02-27T17:24:45.237Z,41.63
2024-02-27T17:27:13.043Z,27.52
2024-02-27T17:29:40.761Z,23.65
2024-02-27T17:32:08.751Z,23.50
2024-02-27T17:34:36.819Z,18.20
2024-02-27T17:37:08.582Z,18.77
2024-02-27T17:39:40.505Z,26.42
2024-02-27T17:42:08.816Z,22.23
2024-02-27T17:44:37.501Z,17.38
2024-02-27T17:47:05.586Z,18.08
2024-02-27T17:49:34.894Z,18.10
2024-02-27T17:52:04.281Z,16.80
2024-02-27T17:54:31.954Z,17.85
2024-02-27T17:57:00.961Z,16.58
2024-02-27T17:59:28.939Z,17.33
2024-02-27T18:01:56.728Z,14.85
2024-02-27T18:04:24.479Z,15.65
2024-02-27T18:06:53.063Z,15.90
2024-02-27T18:09:22.963Z,16.08
2024-02-27T18:11:50.738Z,14.77
2024-02-27T18:14:20.465Z,16.17
2024-02-27T18:16:48.324Z,14.75
2024-02-27T18:19:16.175Z,16.10
2024-02-27T18:21:45.226Z,15.55
2024-02-27T18:24:13.275Z,17.73
2024-02-27T18:26:41.113Z,17.20
2024-02-27T18:29:08.975Z,15.90
2024-02-27T18:31:39.278Z,16.77
2024-02-27T18:34:07.580Z,17.00
2024-02-27T18:36:35.463Z,16.90
2024-02-27T18:39:03.454Z,19.50
2024-02-27T18:41:31.773Z,18.13
2024-02-27T18:43:59.579Z,20.33
2024-02-27T18:46:27.247Z,16.45
2024-02-27T18:48:58.338Z,16.33
2024-02-27T18:51:26.208Z,17.08
2024-02-27T18:53:56.704Z,15.73
2024-02-27T18:56:27.783Z,17.95
2024-02-27T18:58:55.583Z,18.17
2024-02-27T19:01:23.635Z,21.27
2024-02-27T19:03:51.488Z,20.23
2024-02-27T19:06:20.595Z,18.08
2024-02-27T19:08:48.463Z,18.02
2024-02-27T19:11:16.484Z,21.50
2024-02-27T19:13:44.432Z,17.70
2024-02-27T19:16:12.426Z,18.52
2024-02-27T19:18:40.470Z,17.45
2024-02-27T19:21:08.496Z,18.05
2024-02-27T19:23:37.496Z,21.35
2024-02-27T19:26:05.453Z,16.75
2024-02-27T19:28:38.630Z,19.63
2024-02-27T19:31:06.809Z,17.83
2024-02-27T19:33:34.581Z,18.75
2024-02-27T19:36:02.495Z,17.25
2024-02-27T19:38:30.381Z,17.42
2024-02-27T19:40:59.507Z,18.17
2024-02-27T19:43:27.193Z,17.67
2024-02-27T19:45:55.034Z,19.73
2024-02-27T19:48:23.301Z,17.70
2024-02-27T19:50:55.913Z,20.75
2024-02-27T19:53:23.911Z,18.25
2024-02-27T19:55:51.718Z,19.45
2024-02-27T19:58:20.911Z,18.90
2024-02-27T20:00:51.948Z,19.50
2024-02-27T20:03:22.261Z,18.90
2024-02-27T20:05:50.025Z,19.45
2024-02-27T20:08:17.798Z,20.38
2024-02-27T20:10:45.619Z,18.05
2024-02-27T20:13:18.873Z,17.98
2024-02-27T20:15:49.685Z,21.30
2024-02-27T20:18:18.372Z,17.83
2024-02-27T20:20:46.324Z,18.50
2024-02-27T20:23:21.631Z,19.80
2024-02-27T20:25:49.509Z,18.77
2024-02-27T20:28:17.306Z,22.98
2024-02-27T20:30:45.561Z,19.55
2024-02-27T20:33:15.633Z,19.98
2024-02-27T20:35:44.090Z,20.60
2024-02-27T20:38:16.506Z,17.58
2024-02-27T20:40:44.365Z,19.92
2024-02-27T20:43:12.181Z,18.63
2024-02-27T20:45:40.226Z,20.73
2024-02-27T20:48:09.567Z,18.60
2024-02-27T20:50:39.022Z,20.48
2024-02-27T20:53:08.166Z,27.98
2024-02-27T20:55:36.006Z,20.60
2024-02-27T20:58:03.951Z,20.80
2024-02-27T21:00:31.880Z,22.23
2024-02-27T21:02:59.880Z,17.80
2024-02-27T21:05:27.833Z,22.73
2024-02-27T21:07:58.608Z,19.40
2024-02-27T21:10:28.163Z,20.10
2024-02-27T21:12:55.923Z,18.92
2024-02-27T21:15:24.828Z,23.55
2024-02-27T21:17:52.833Z,20.50
2024-02-27T21:20:20.565Z,22.42
2024-02-27T21:22:48.344Z,20.60
2024-02-27T21:25:17.669Z,22.77
2024-02-27T21:27:53.672Z,21.92
2024-02-27T21:30:22.942Z,24.15
2024-02-27T21:32:50.928Z,20.80
2024-02-27T21:35:18.691Z,19.88
2024-02-27T21:37:46.442Z,23.42
2024-02-27T21:40:14.985Z,28.63
2024-02-27T21:42:44.137Z,21.38
2024-02-27T21:45:13.434Z,21.73
2024-02-27T21:47:41.377Z,23.95
2024-02-27T21:50:09.970Z,20.80
2024-02-27T21:52:37.627Z,20.75
2024-02-27T21:55:06.083Z,18.35
2024-02-27T21:57:33.933Z,22.05
2024-02-27T22:00:04.370Z,20.58
2024-02-27T22:02:32.100Z,18.02
2024-02-27T22:04:59.808Z,20.48
2024-02-27T22:07:27.581Z,19.80
2024-02-27T22:09:55.339Z,17.05
2024-02-27T22:12:23.227Z,18.27
2024-02-27T22:14:51.058Z,17.63
2024-02-27T22:17:21.932Z,21.48
2024-02-27T22:19:49.626Z,18.75
2024-02-27T22:22:17.384Z,20.35
2024-02-27T22:24:45.271Z,18.63
2024-02-27T22:27:13.241Z,19.42
2024-02-27T22:29:40.982Z,20.05
2024-02-27T22:32:09.811Z,19.80
2024-02-27T22:34:39.291Z,22.25
2024-02-27T22:37:07.263Z,20.27
2024-02-27T22:39:35.524Z,18.63
2024-02-27T22:42:03.325Z,20.65
2024-02-27T22:44:31.263Z,23.65
2024-02-27T22:46:59.116Z,27.88
2024-02-27T22:49:26.923Z,28.67
2024-02-27T22:51:56.076Z,31.70
2024-02-27T22:54:23.832Z,30.20
2024-02-27T22:56:51.748Z,33.78
2024-02-27T22:59:19.488Z,40.28
2024-02-27T23:01:47.202Z,36.58
2024-02-27T23:04:15.113Z,41.00
2024-02-27T23:06:42.907Z,40.28
2024-02-27T23:09:12.056Z,41.35
2024-02-27T23:11:39.906Z,40.47
2024-02-27T23:14:09.616Z,40.13
2024-02-27T23:16:37.882Z,43.13
2024-02-27T23:19:06.081Z,43.30
2024-02-27T23:21:33.987Z,44.03
2024-02-27T23:24:03.295Z,41.47
2024-02-27T23:26:32.362Z,43.53
2024-02-27T23:29:00.166Z,47.58
2024-02-27T23:31:27.838Z,44.33
2024-02-27T23:33:56.506Z,45.22
2024-02-27T23:36:24.300Z,49.42
2024-02-27T23:38:52.025Z,43.28
2024-02-27T23:41:19.692Z,45.33
2024-02-27T23:43:48.674Z,46.00
2024-02-27T23:46:16.517Z,43.25
2024-02-27T23:48:44.292Z,50.80
2024-02-27T23:51:12.134Z,47.33
2024-02-27T23:53:39.845Z,45.92
2024-02-27T23:56:07.928Z,48.00
2024-02-27T23:58:35.657Z,49.55
